Time;durP1;ratioP1;P1;durP2;ratioP2;P2;SDS_P1;SDS_P2;PMS_P1;PMS_P2;Temp;Humidity;BMP_temperature;BMP_pressure;BME280_temperature;BME280_humidity;BME280_pressure;Samples;Min_cycle;Max_cycle;Signal;HPM_P1;HPM_P2
2023/08/05 00:00:41;;;;;;;6.33;2.50;;;;;;;;;;4931784;29;20499;-67
2023/08/05 00:03:08;;;;;;;6.40;2.73;;;;;;;;;;4929638;29;20498;-67
2023/08/05 00:05:37;;;;;;;2.93;1.80;;;;;;;;;;4932156;29;20447;-68
2023/08/05 00:08:04;;;;;;;3.47;1.70;;;;;;;;;;4935009;29;20960;-68
2023/08/05 00:10:31;;;;;;;3.93;2.53;;;;;;;;;;4935326;29;20464;-68
2023/08/05 00:13:00;;;;;;;5.20;1.87;;;;;;;;;;4935492;29;20523;-66
2023/08/05 00:15:27;;;;;;;5.17;2.20;;;;;;;;;;4931121;29;20927;-68
2023/08/05 00:17:54;;;;;;;4.00;2.13;;;;;;;;;;4934119;29;20546;-68
2023/08/05 00:20:21;;;;;;;3.20;1.90;;;;;;;;;;4933363;29;20472;-67
2023/08/05 00:22:48;;;;;;;3.93;2.27;;;;;;;;;;4934784;29;20487;-68
2023/08/05 00:25:16;;;;;;;4.27;2.60;;;;;;;;;;4934201;29;20578;-67
2023/08/05 00:27:43;;;;;;;3.70;2.40;;;;;;;;;;4934879;29;20542;-69
2023/08/05 00:30:12;;;;;;;4.20;2.30;;;;;;;;;;4929649;29;20495;-69
2023/08/05 00:32:39;;;;;;;4.17;2.77;;;;;;;;;;4935078;29;20482;-68
2023/08/05 00:35:07;;;;;;;3.40;1.83;;;;;;;;;;4933331;29;20455;-67
2023/08/05 00:37:34;;;;;;;2.50;1.60;;;;;;;;;;4932658;29;20821;-67
2023/08/05 00:40:01;;;;;;;3.10;1.97;;;;;;;;;;4931511;29;20459;-67
2023/08/05 00:42:29;;;;;;;4.13;2.00;;;;;;;;;;4931058;29;20864;-67
2023/08/05 00:44:56;;;;;;;3.60;1.90;;;;;;;;;;4932406;29;20487;-67
2023/08/05 00:47:25;;;;;;;3.60;2.00;;;;;;;;;;4934560;29;20549;-67
2023/08/05 00:49:53;;;;;;;2.90;1.43;;;;;;;;;;4933473;29;20446;-67
2023/08/05 00:52:21;;;;;;;3.43;1.77;;;;;;;;;;4934172;29;21016;-67
2023/08/05 00:54:49;;;;;;;3.07;1.87;;;;;;;;;;4932266;29;20892;-67
2023/08/05 00:57:17;;;;;;;3.90;2.13;;;;;;;;;;4932225;29;20470;-67
2023/08/05 00:59:44;;;;;;;5.07;2.03;;;;;;;;;;4990922;23;20822;-69
2023/08/05 01:02:11;;;;;;;3.27;2.00;;;;;;;;;;4910659;29;20909;-70
2023/08/05 01:04:40;;;;;;;5.33;2.47;;;;;;;;;;4904160;29;20575;-69
2023/08/05 01:07:07;;;;;;;5.00;2.17;;;;;;;;;;4903020;29;20457;-70
2023/08/05 01:09:35;;;;;;;3.03;1.60;;;;;;;;;;4905721;29;20460;-70
2023/08/05 01:12:02;;;;;;;3.33;2.23;;;;;;;;;;4907545;29;20464;-69
2023/08/05 01:14:29;;;;;;;3.50;1.80;;;;;;;;;;4905146;29;20445;-70
2023/08/05 01:16:56;;;;;;;2.33;1.40;;;;;;;;;;4901981;29;20457;-69
2023/08/05 01:19:25;;;;;;;3.40;2.23;;;;;;;;;;4907771;29;20869;-69
2023/08/05 01:21:57;;;;;;;3.40;2.07;;;;;;;;;;4911957;29;20480;-69
2023/08/05 01:24:28;;;;;;;4.20;2.53;;;;;;;;;;4911229;29;20512;-71
2023/08/05 01:26:57;;;;;;;3.30;2.17;;;;;;;;;;4909436;29;20918;-70
2023/08/05 01:29:24;;;;;;;6.80;2.33;;;;;;;;;;4908390;29;20987;-69
2023/08/05 01:31:53;;;;;;;2.77;1.73;;;;;;;;;;4906692;29;20477;-69
2023/08/05 01:34:20;;;;;;;3.50;2.30;;;;;;;;;;4909787;29;20527;-70
2023/08/05 01:36:47;;;;;;;3.17;1.80;;;;;;;;;;4909864;29;20540;-70
2023/08/05 01:39:15;;;;;;;3.10;1.53;;;;;;;;;;4907534;29;20449;-69
2023/08/05 01:41:42;;;;;;;2.50;1.40;;;;;;;;;;4905772;29;20564;-69
2023/08/05 01:44:10;;;;;;;4.23;1.87;;;;;;;;;;4907710;29;20487;-69
2023/08/05 01:46:38;;;;;;;3.77;2.10;;;;;;;;;;4907333;29;20840;-70
2023/08/05 01:49:05;;;;;;;3.20;1.70;;;;;;;;;;4912802;29;20444;-69
2023/08/05 01:51:33;;;;;;;3.47;1.90;;;;;;;;;;4911694;29;20472;-70
2023/08/05 01:54:00;;;;;;;2.90;2.10;;;;;;;;;;4908858;29;20574;-70
2023/08/05 01:56:28;;;;;;;3.10;1.90;;;;;;;;;;4907940;29;20512;-72
2023/08/05 01:58:55;;;;;;;2.63;1.70;;;;;;;;;;4906577;29;20460;-70
2023/08/05 02:01:23;;;;;;;2.67;1.40;;;;;;;;;;4908411;29;20887;-70
2023/08/05 02:03:50;;;;;;;2.77;1.77;;;;;;;;;;4904498;29;20481;-70
2023/08/05 02:06:17;;;;;;;3.30;1.73;;;;;;;;;;4906390;29;20488;-69
2023/08/05 02:08:45;;;;;;;2.70;1.90;;;;;;;;;;4907002;29;20456;-70
2023/08/05 02:11:12;;;;;;;2.20;1.40;;;;;;;;;;4903759;29;20984;-70
2023/08/05 02:13:39;;;;;;;3.00;1.50;;;;;;;;;;4911042;29;20493;-70
2023/08/05 02:16:06;;;;;;;3.10;1.93;;;;;;;;;;4908091;29;20543;-70
2023/08/05 02:18:35;;;;;;;3.83;1.80;;;;;;;;;;4906128;29;20453;-69
2023/08/05 02:21:02;;;;;;;3.60;1.63;;;;;;;;;;4904072;29;20492;-70
2023/08/05 02:23:29;;;;;;;3.50;2.00;;;;;;;;;;4903959;29;20986;-70
2023/08/05 02:25:56;;;;;;;2.67;1.80;;;;;;;;;;4909177;29;21098;-70
2023/08/05 02:28:24;;;;;;;3.47;2.33;;;;;;;;;;4906736;29;20464;-70
2023/08/05 02:30:51;;;;;;;2.90;1.90;;;;;;;;;;4903158;29;21118;-70
2023/08/05 02:33:18;;;;;;;3.67;2.23;;;;;;;;;;4909185;29;20492;-70
2023/08/05 02:35:47;;;;;;;4.30;2.20;;;;;;;;;;4906917;29;20529;-70
2023/08/05 02:38:14;;;;;;;5.10;2.37;;;;;;;;;;4917457;29;20508;-70
2023/08/05 02:40:42;;;;;;;3.20;1.93;;;;;;;;;;4916196;29;20441;-70
2023/08/05 02:43:09;;;;;;;2.60;1.30;;;;;;;;;;4904061;29;20528;-70
2023/08/05 02:45:36;;;;;;;3.20;1.80;;;;;;;;;;4897926;29;20512;-70
2023/08/05 02:48:02;;;;;;;4.30;2.40;;;;;;;;;;4904114;29;20462;-70
2023/08/05 02:50:29;;;;;;;3.33;2.07;;;;;;;;;;4907968;29;20489;-69
2023/08/05 02:52:58;;;;;;;2.90;1.83;;;;;;;;;;4905422;29;20584;-70
2023/08/05 02:55:25;;;;;;;3.17;1.97;;;;;;;;;;4906856;29;20449;-70
2023/08/05 02:57:52;;;;;;;3.37;1.90;;;;;;;;;;4904548;29;20513;-70
2023/08/05 03:00:19;;;;;;;3.40;1.63;;;;;;;;;;4906373;29;20496;-70
2023/08/05 03:02:47;;;;;;;4.17;2.83;;;;;;;;;;4904501;29;20524;-70
2023/08/05 03:05:14;;;;;;;3.80;2.50;;;;;;;;;;4904875;29;20492;-70
2023/08/05 03:07:41;;;;;;;2.87;1.80;;;;;;;;;;4905360;29;20525;-70
2023/08/05 03:10:10;;;;;;;4.00;2.30;;;;;;;;;;4904135;29;20437;-70
2023/08/05 03:12:38;;;;;;;3.93;2.10;;;;;;;;;;4904867;29;20485;-70
2023/08/05 03:15:05;;;;;;;2.80;1.90;;;;;;;;;;4908877;29;20516;-70
2023/08/05 03:17:33;;;;;;;2.87;2.00;;;;;;;;;;4901065;29;20896;-70
2023/08/05 03:20:00;;;;;;;2.30;1.47;;;;;;;;;;4904539;29;20437;-70
2023/08/05 03:22:27;;;;;;;3.60;1.77;;;;;;;;;;4903155;29;20524;-70
2023/08/05 03:24:55;;;;;;;4.03;1.93;;;;;;;;;;4903263;29;20679;-73
2023/08/05 03:27:23;;;;;;;3.60;2.83;;;;;;;;;;4904878;29;21016;-70
2023/08/05 03:29:50;;;;;;;3.90;2.17;;;;;;;;;;4909637;29;20481;-70
2023/08/05 03:32:17;;;;;;;3.50;2.10;;;;;;;;;;4904092;29;20766;-70
2023/08/05 03:34:45;;;;;;;4.43;2.13;;;;;;;;;;4905006;29;20520;-69
2023/08/05 03:37:12;;;;;;;4.40;2.47;;;;;;;;;;4902558;29;21039;-70
2023/08/05 03:39:39;;;;;;;3.47;1.93;;;;;;;;;;4904231;29;20547;-70
2023/08/05 03:42:06;;;;;;;4.60;1.70;;;;;;;;;;4904555;29;20478;-70
2023/08/05 03:44:35;;;;;;;8.83;2.10;;;;;;;;;;4910116;29;20515;-70
2023/08/05 03:47:03;;;;;;;2.60;1.70;;;;;;;;;;4903170;29;20496;-70
2023/08/05 03:49:30;;;;;;;5.87;1.80;;;;;;;;;;4906081;29;20464;-70
2023/08/05 03:51:57;;;;;;;5.07;2.37;;;;;;;;;;4905701;29;20521;-69
2023/08/05 03:54:24;;;;;;;3.20;1.90;;;;;;;;;;4910004;29;20483;-70
2023/08/05 03:56:52;;;;;;;5.77;2.73;;;;;;;;;;4904483;29;20543;-70
2023/08/05 03:59:20;;;;;;;4.30;2.20;;;;;;;;;;4911744;29;20456;-70
2023/08/05 04:01:48;;;;;;;3.40;2.37;;;;;;;;;;4905497;29;20489;-70
2023/08/05 04:04:16;;;;;;;6.30;2.50;;;;;;;;;;4903921;29;20497;-70
2023/08/05 04:06:45;;;;;;;5.20;2.07;;;;;;;;;;4903928;29;20496;-70
2023/08/05 04:09:12;;;;;;;3.97;1.87;;;;;;;;;;4906266;29;20530;-70
2023/08/05 04:11:40;;;;;;;4.53;2.37;;;;;;;;;;4904452;29;20510;-70
2023/08/05 04:14:07;;;;;;;5.90;2.37;;;;;;;;;;4909257;29;20813;-70
2023/08/05 04:16:34;;;;;;;3.60;1.80;;;;;;;;;;4901240;29;20467;-70
2023/08/05 04:19:04;;;;;;;3.27;2.10;;;;;;;;;;4902400;29;20465;-70
2023/08/05 04:21:35;;;;;;;4.33;2.17;;;;;;;;;;4903306;29;20488;-70
2023/08/05 04:24:02;;;;;;;3.90;2.00;;;;;;;;;;4904021;29;20444;-69
2023/08/05 04:26:35;;;;;;;2.90;1.80;;;;;;;;;;4908804;29;20491;-69
2023/08/05 04:29:02;;;;;;;3.17;1.80;;;;;;;;;;4897969;29;20457;-70
2023/08/05 04:31:30;;;;;;;3.23;2.33;;;;;;;;;;4902141;29;20477;-69
2023/08/05 04:33:57;;;;;;;4.67;2.60;;;;;;;;;;4904992;29;20449;-68
2023/08/05 04:36:25;;;;;;;2.93;1.60;;;;;;;;;;4902572;29;20457;-69
2023/08/05 04:38:52;;;;;;;3.63;2.57;;;;;;;;;;4904777;29;20515;-69
2023/08/05 04:41:19;;;;;;;3.23;2.40;;;;;;;;;;4902039;29;20484;-69
2023/08/05 04:43:47;;;;;;;4.70;2.40;;;;;;;;;;4903892;29;21008;-70
2023/08/05 04:46:14;;;;;;;3.23;2.10;;;;;;;;;;4904066;29;20491;-69
2023/08/05 04:48:41;;;;;;;3.00;1.70;;;;;;;;;;4905892;29;20498;-70
2023/08/05 04:51:08;;;;;;;3.67;2.40;;;;;;;;;;4904574;29;20460;-69
2023/08/05 04:53:37;;;;;;;3.80;2.23;;;;;;;;;;4903738;29;20934;-69
2023/08/05 04:56:04;;;;;;;3.70;2.50;;;;;;;;;;4902658;29;20468;-69
2023/08/05 04:58:31;;;;;;;4.73;2.30;;;;;;;;;;4904568;29;20465;-68
2023/08/05 05:00:59;;;;;;;3.23;1.93;;;;;;;;;;4899025;29;20476;-69
2023/08/05 05:03:26;;;;;;;6.77;1.90;;;;;;;;;;4900618;29;20504;-69
2023/08/05 05:05:55;;;;;;;3.50;2.17;;;;;;;;;;4903555;29;20477;-69
2023/08/05 05:08:22;;;;;;;4.17;2.30;;;;;;;;;;4905621;29;20464;-69
2023/08/05 05:10:50;;;;;;;3.13;2.27;;;;;;;;;;4902821;29;20902;-69
2023/08/05 05:13:18;;;;;;;3.60;2.10;;;;;;;;;;4902113;29;20493;-69
2023/08/05 05:15:46;;;;;;;3.17;2.43;;;;;;;;;;4906836;29;20639;-69
2023/08/05 05:18:13;;;;;;;3.87;1.80;;;;;;;;;;4902026;29;20468;-71
2023/08/05 05:20:40;;;;;;;3.17;1.70;;;;;;;;;;4904325;29;20460;-69
2023/08/05 05:23:08;;;;;;;3.20;2.30;;;;;;;;;;4900531;29;20576;-69
2023/08/05 05:25:35;;;;;;;2.87;1.70;;;;;;;;;;4903079;29;20480;-69
2023/08/05 05:28:04;;;;;;;3.47;1.80;;;;;;;;;;4906502;29;20467;-69
2023/08/05 05:30:31;;;;;;;5.20;1.60;;;;;;;;;;4902012;29;20540;-69
2023/08/05 05:32:59;;;;;;;3.40;2.20;;;;;;;;;;4903610;29;20556;-70
2023/08/05 05:35:26;;;;;;;3.20;2.07;;;;;;;;;;4905733;29;20441;-69
2023/08/05 05:37:53;;;;;;;4.30;2.57;;;;;;;;;;4906397;29;20740;-68
2023/08/05 05:40:20;;;;;;;3.63;2.00;;;;;;;;;;4901409;29;20504;-69
2023/08/05 05:42:49;;;;;;;4.17;1.90;;;;;;;;;;4904136;29;20488;-71
2023/08/05 05:45:17;;;;;;;3.47;1.90;;;;;;;;;;4901772;29;21018;-70
2023/08/05 05:47:45;;;;;;;6.20;2.13;;;;;;;;;;4900103;29;20464;-71
2023/08/05 05:50:12;;;;;;;2.33;1.40;;;;;;;;;;4900450;29;20963;-67
2023/08/05 05:52:40;;;;;;;4.27;1.97;;;;;;;;;;4903388;29;20533;-68
2023/08/05 05:55:08;;;;;;;3.53;2.03;;;;;;;;;;4901768;29;20467;-67
2023/08/05 05:57:35;;;;;;;3.63;2.47;;;;;;;;;;4905605;29;21168;-66
2023/08/05 06:00:04;;;;;;;2.80;1.90;;;;;;;;;;4905832;29;20523;-68
2023/08/05 06:02:34;;;;;;;2.53;1.70;;;;;;;;;;4907829;29;20535;-67
2023/08/05 06:05:01;;;;;;;3.10;2.20;;;;;;;;;;4910016;29;20485;-67
2023/08/05 06:07:28;;;;;;;3.97;2.10;;;;;;;;;;4904047;29;20523;-68
2023/08/05 06:09:55;;;;;;;3.07;1.90;;;;;;;;;;4905033;29;20472;-68
2023/08/05 06:12:27;;;;;;;3.00;1.83;;;;;;;;;;4908826;29;20484;-67
2023/08/05 06:14:55;;;;;;;3.17;1.70;;;;;;;;;;4909200;29;20472;-67
2023/08/05 06:17:22;;;;;;;3.63;1.70;;;;;;;;;;4903615;29;20543;-68
2023/08/05 06:19:50;;;;;;;4.40;2.23;;;;;;;;;;4904826;29;21007;-68
2023/08/05 06:22:18;;;;;;;4.10;1.60;;;;;;;;;;4904415;29;20851;-67
2023/08/05 06:24:45;;;;;;;2.47;1.50;;;;;;;;;;4903848;29;20499;-66
2023/08/05 06:27:12;;;;;;;3.23;1.57;;;;;;;;;;4904175;29;20571;-68
2023/08/05 06:29:39;;;;;;;4.97;2.33;;;;;;;;;;4907711;29;20482;-68
2023/08/05 06:32:07;;;;;;;3.87;1.63;;;;;;;;;;4906280;29;20571;-68
2023/08/05 06:34:34;;;;;;;3.00;1.57;;;;;;;;;;4907375;29;20957;-68
2023/08/05 06:37:02;;;;;;;3.80;1.90;;;;;;;;;;4903635;29;20470;-68
2023/08/05 06:39:32;;;;;;;3.33;1.90;;;;;;;;;;4906814;29;20488;-68
2023/08/05 06:42:00;;;;;;;2.87;1.37;;;;;;;;;;4910308;29;20483;-67
2023/08/05 06:44:27;;;;;;;3.93;1.90;;;;;;;;;;4906860;29;20468;-67
2023/08/05 06:46:54;;;;;;;3.30;1.73;;;;;;;;;;4903166;29;20485;-68
2023/08/05 06:49:21;;;;;;;3.47;1.40;;;;;;;;;;4900691;29;20464;-66
2023/08/05 06:51:50;;;;;;;2.63;1.90;;;;;;;;;;4908049;29;20485;-67
2023/08/05 06:54:19;;;;;;;3.10;2.20;;;;;;;;;;4910544;29;20449;-67
2023/08/05 06:56:46;;;;;;;2.57;1.57;;;;;;;;;;4906548;29;20452;-67
2023/08/05 06:59:13;;;;;;;3.10;1.70;;;;;;;;;;4899773;29;20478;-67
2023/08/05 07:01:41;;;;;;;2.23;1.67;;;;;;;;;;4901393;29;20496;-68
2023/08/05 07:04:09;;;;;;;3.70;1.80;;;;;;;;;;4903847;29;20463;-68
2023/08/05 07:06:36;;;;;;;4.37;2.37;;;;;;;;;;4899718;29;20481;-68
2023/08/05 07:09:04;;;;;;;3.00;1.90;;;;;;;;;;4897156;29;20539;-67
2023/08/05 07:11:33;;;;;;;2.40;1.60;;;;;;;;;;4897107;29;20485;-68
2023/08/05 07:14:00;;;;;;;3.53;1.37;;;;;;;;;;4905772;29;20461;-67
2023/08/05 07:16:27;;;;;;;2.87;1.90;;;;;;;;;;4901791;29;20461;-66
2023/08/05 07:18:54;;;;;;;2.30;1.43;;;;;;;;;;4903956;29;20457;-66
2023/08/05 07:21:21;;;;;;;3.47;2.17;;;;;;;;;;4906139;29;20537;-67
2023/08/05 07:23:51;;;;;;;4.40;1.70;;;;;;;;;;4895008;29;20635;-67
2023/08/05 07:26:18;;;;;;;3.60;1.90;;;;;;;;;;4902448;29;20519;-67
2023/08/05 07:28:48;;;;;;;5.00;2.57;;;;;;;;;;4903870;29;20491;-67
2023/08/05 07:31:16;;;;;;;3.40;1.60;;;;;;;;;;4902846;29;20488;-66
2023/08/05 07:33:46;;;;;;;2.60;1.90;;;;;;;;;;4906727;29;20905;-67
2023/08/05 07:36:15;;;;;;;2.80;1.70;;;;;;;;;;4900370;29;20461;-67
2023/08/05 07:38:45;;;;;;;2.77;1.83;;;;;;;;;;4907614;29;20476;-66
2023/08/05 07:41:12;;;;;;;4.63;1.70;;;;;;;;;;4904714;29;20856;-67
2023/08/05 07:43:41;;;;;;;2.50;1.80;;;;;;;;;;4906241;29;20459;-68
2023/08/05 07:46:13;;;;;;;2.87;1.53;;;;;;;;;;4901002;29;20934;-68
2023/08/05 07:48:40;;;;;;;2.70;1.60;;;;;;;;;;4908107;29;20464;-66
2023/08/05 07:51:08;;;;;;;4.00;1.33;;;;;;;;;;4900147;29;20460;-67
2023/08/05 07:53:36;;;;;;;3.03;1.30;;;;;;;;;;4902923;29;20844;-67
2023/08/05 07:56:09;;;;;;;2.67;1.63;;;;;;;;;;4906674;29;20489;-67
2023/08/05 07:58:39;;;;;;;2.63;1.63;;;;;;;;;;4903201;29;20883;-67
2023/08/05 08:01:07;;;;;;;3.40;1.67;;;;;;;;;;4901340;29;20481;-67
2023/08/05 08:03:35;;;;;;;4.27;1.80;;;;;;;;;;4905147;29;20508;-68
2023/08/05 08:06:02;;;;;;;3.87;2.00;;;;;;;;;;4900924;29;20903;-68
2023/08/05 08:08:29;;;;;;;2.57;1.77;;;;;;;;;;4901587;29;20849;-68
2023/08/05 08:10:57;;;;;;;3.03;2.00;;;;;;;;;;4903022;29;20505;-67
2023/08/05 08:13:24;;;;;;;7.63;1.90;;;;;;;;;;4906158;29;20465;-68
2023/08/05 08:15:51;;;;;;;3.10;1.87;;;;;;;;;;4906156;29;20466;-68
2023/08/05 08:18:18;;;;;;;2.13;1.20;;;;;;;;;;4898190;29;20461;-68
2023/08/05 08:20:51;;;;;;;2.30;1.70;;;;;;;;;;4899094;29;20520;-67
2023/08/05 08:23:18;;;;;;;2.23;1.30;;;;;;;;;;4894233;29;20492;-68
2023/08/05 08:25:46;;;;;;;2.63;1.43;;;;;;;;;;4904905;29;20926;-68
2023/08/05 08:28:13;;;;;;;1.97;1.33;;;;;;;;;;4903107;29;20485;-68
2023/08/05 08:30:41;;;;;;;2.20;1.23;;;;;;;;;;4901675;29;20588;-66
2023/08/05 08:33:08;;;;;;;2.43;1.47;;;;;;;;;;4902862;29;20524;-66
2023/08/05 08:35:35;;;;;;;2.10;1.20;;;;;;;;;;4906233;29;20533;-66
2023/08/05 08:38:03;;;;;;;2.53;1.33;;;;;;;;;;4907969;29;20433;-66
2023/08/05 08:40:32;;;;;;;2.97;1.60;;;;;;;;;;4909639;29;20505;-66
2023/08/05 08:43:01;;;;;;;3.33;1.60;;;;;;;;;;4909877;29;20536;-68
2023/08/05 08:45:32;;;;;;;7.83;1.47;;;;;;;;;;4907366;29;20978;-68
2023/08/05 08:47:59;;;;;;;1.70;1.10;;;;;;;;;;4909315;29;20481;-68
2023/08/05 08:50:27;;;;;;;2.07;1.53;;;;;;;;;;4910384;29;20469;-67
2023/08/05 08:52:56;;;;;;;2.70;1.90;;;;;;;;;;4905806;29;20583;-68
2023/08/05 08:55:25;;;;;;;2.07;1.50;;;;;;;;;;4907054;29;20556;-69
2023/08/05 08:57:52;;;;;;;2.70;1.37;;;;;;;;;;4909472;29;20434;-68
2023/08/05 09:00:19;;;;;;;2.27;1.40;;;;;;;;;;4908032;29;20453;-68
2023/08/05 09:02:47;;;;;;;3.50;1.80;;;;;;;;;;4902140;29;20588;-68
2023/08/05 09:05:14;;;;;;;5.27;2.10;;;;;;;;;;4904971;29;20468;-68
2023/08/05 09:07:41;;;;;;;3.50;1.57;;;;;;;;;;4906047;29;20544;-68
2023/08/05 09:10:09;;;;;;;2.70;1.83;;;;;;;;;;4899582;29;20548;-68
2023/08/05 09:12:38;;;;;;;2.40;1.50;;;;;;;;;;4900230;29;20480;-68
2023/08/05 09:15:06;;;;;;;1.83;1.00;;;;;;;;;;4907521;29;20504;-68
2023/08/05 09:17:38;;;;;;;2.53;1.63;;;;;;;;;;4903381;29;20488;-68
2023/08/05 09:20:12;;;;;;;4.80;1.97;;;;;;;;;;4907368;29;20473;-68
2023/08/05 09:22:39;;;;;;;2.83;2.13;;;;;;;;;;4904232;29;20491;-68
2023/08/05 09:25:07;;;;;;;2.70;1.67;;;;;;;;;;4907042;29;20461;-68
2023/08/05 09:27:46;;;;;;;5.20;2.63;;;;;;;;;;4900094;29;20489;-68
2023/08/05 09:30:18;;;;;;;2.30;1.50;;;;;;;;;;4903402;29;20440;-68
2023/08/05 09:32:45;;;;;;;3.00;1.70;;;;;;;;;;4899056;29;20491;-68
2023/08/05 09:35:13;;;;;;;2.07;1.23;;;;;;;;;;4907240;29;20457;-68
2023/08/05 09:37:40;;;;;;;2.20;1.27;;;;;;;;;;4907935;29;20437;-68
2023/08/05 09:40:16;;;;;;;3.30;1.33;;;;;;;;;;4907783;29;20445;-68
2023/08/05 09:42:45;;;;;;;2.77;1.70;;;;;;;;;;4903336;29;20476;-68
2023/08/05 09:45:12;;;;;;;2.50;1.40;;;;;;;;;;4908921;29;20943;-68
2023/08/05 09:47:42;;;;;;;1.70;1.17;;;;;;;;;;4904352;29;20493;-67
2023/08/05 09:50:10;;;;;;;2.13;1.20;;;;;;;;;;4909330;29;20448;-67
2023/08/05 09:52:38;;;;;;;1.90;1.20;;;;;;;;;;4910150;29;20815;-68
2023/08/05 09:55:07;;;;;;;2.53;1.40;;;;;;;;;;4907966;29;20798;-68
2023/08/05 09:57:34;;;;;;;2.80;1.47;;;;;;;;;;4911665;29;21927;-68
2023/08/05 10:00:07;;;;;;;4.17;1.00;;;;;;;;;;4908146;29;20458;-68
2023/08/05 10:02:35;;;;;;;1.70;1.03;;;;;;;;;;4907958;29;20876;-67
2023/08/05 10:05:04;;;;;;;1.60;0.90;;;;;;;;;;4909686;29;20500;-67
2023/08/05 10:07:31;;;;;;;2.50;1.30;;;;;;;;;;4912448;29;20516;-67
2023/08/05 10:10:00;;;;;;;2.30;1.20;;;;;;;;;;4909242;29;20539;-68
2023/08/05 10:12:31;;;;;;;2.43;1.37;;;;;;;;;;4906701;29;20715;-67
2023/08/05 10:15:00;;;;;;;2.07;1.00;;;;;;;;;;4908759;29;20528;-67
2023/08/05 10:17:28;;;;;;;2.70;1.13;;;;;;;;;;4909385;29;20863;-66
2023/08/05 10:19:55;;;;;;;2.20;1.40;;;;;;;;;;4908717;29;20461;-67
2023/08/05 10:22:24;;;;;;;3.20;1.60;;;;;;;;;;4912240;29;20477;-67
2023/08/05 10:24:52;;;;;;;3.37;1.50;;;;;;;;;;4906937;29;20447;-67
2023/08/05 10:27:33;;;;;;;9.90;5.07;;;;;;;;;;4906124;29;20513;-67
2023/08/05 10:30:06;;;;;;;3.43;1.63;;;;;;;;;;4905127;29;20464;-67
2023/08/05 10:32:35;;;;;;;3.00;1.30;;;;;;;;;;4905258;29;20483;-68
2023/08/05 10:35:21;;;;;;;2.20;1.50;;;;;;;;;;4904876;29;20461;-67
2023/08/05 10:38:05;;;;;;;5.53;1.30;;;;;;;;;;4906324;29;20445;-68
2023/08/05 10:40:40;;;;;;;1.83;0.93;;;;;;;;;;4913276;29;20481;-68
2023/08/05 10:43:07;;;;;;;2.57;1.40;;;;;;;;;;4907615;29;20914;-68
2023/08/05 10:45:35;;;;;;;4.50;1.83;;;;;;;;;;4908695;29;21173;-67
2023/08/05 10:48:02;;;;;;;2.27;1.20;;;;;;;;;;4906757;29;20679;-67
2023/08/05 10:50:36;;;;;;;1.87;1.10;;;;;;;;;;4905110;29;20560;-69
2023/08/05 10:53:08;;;;;;;1.73;1.20;;;;;;;;;;4907188;29;20489;-68
2023/08/05 10:55:46;;;;;;;2.60;1.43;;;;;;;;;;4900829;29;20473;-68
2023/08/05 10:58:13;;;;;;;3.10;1.30;;;;;;;;;;4906685;29;20446;-67
2023/08/05 11:00:42;;;;;;;2.13;1.27;;;;;;;;;;4908791;29;20508;-67
2023/08/05 11:03:25;;;;;;;3.67;2.03;;;;;;;;;;4904372;29;20478;-68
2023/08/05 11:05:54;;;;;;;2.53;1.53;;;;;;;;;;4915698;29;20473;-68
2023/08/05 11:08:23;;;;;;;3.00;2.00;;;;;;;;;;4908863;29;20525;-68
2023/08/05 11:10:51;;;;;;;4.27;2.40;;;;;;;;;;4904972;29;20541;-68
2023/08/05 11:13:19;;;;;;;4.40;2.00;;;;;;;;;;4906392;29;20497;-68
2023/08/05 11:16:02;;;;;;;4.63;2.53;;;;;;;;;;4907032;29;20864;-68
2023/08/05 11:18:30;;;;;;;2.67;1.80;;;;;;;;;;4902012;29;20469;-68
2023/08/05 11:20:57;;;;;;;6.23;2.40;;;;;;;;;;4905489;29;20904;-67
2023/08/05 11:23:26;;;;;;;2.87;1.60;;;;;;;;;;4904156;29;20472;-66
2023/08/05 11:25:53;;;;;;;4.83;1.60;;;;;;;;;;4903761;29;20534;-67
2023/08/05 11:28:20;;;;;;;1.70;1.10;;;;;;;;;;4900918;29;20533;-67
2023/08/05 11:30:48;;;;;;;4.43;1.27;;;;;;;;;;4905968;29;20575;-68
2023/08/05 11:33:15;;;;;;;2.50;1.40;;;;;;;;;;4910137;29;20468;-68
2023/08/05 11:35:44;;;;;;;2.83;1.50;;;;;;;;;;4907290;29;20935;-68
2023/08/05 11:38:11;;;;;;;3.50;1.50;;;;;;;;;;4911629;29;20944;-68
2023/08/05 11:40:44;;;;;;;2.57;1.70;;;;;;;;;;4903878;29;20539;-68
2023/08/05 11:43:12;;;;;;;2.40;1.50;;;;;;;;;;4907127;29;20465;-67
2023/08/05 11:45:41;;;;;;;1.80;1.20;;;;;;;;;;4909908;29;20435;-67
2023/08/05 11:48:17;;;;;;;2.60;1.33;;;;;;;;;;4907793;29;20589;-67
2023/08/05 11:50:45;;;;;;;1.80;1.30;;;;;;;;;;4906403;29;20441;-67
2023/08/05 11:53:13;;;;;;;1.60;1.10;;;;;;;;;;4901187;29;20497;-68
2023/08/05 11:55:42;;;;;;;1.93;1.07;;;;;;;;;;4909725;29;20559;-67
2023/08/05 11:58:11;;;;;;;2.27;1.47;;;;;;;;;;4909377;29;20489;-68
2023/08/05 12:00:39;;;;;;;2.73;1.80;;;;;;;;;;4905662;29;20902;-67
2023/08/05 12:03:07;;;;;;;1.70;1.30;;;;;;;;;;4902669;29;20662;-68
2023/08/05 12:05:34;;;;;;;1.70;1.00;;;;;;;;;;4902719;29;20535;-68
2023/08/05 12:08:01;;;;;;;1.80;1.30;;;;;;;;;;4904148;29;20492;-67
2023/08/05 12:10:29;;;;;;;2.90;1.70;;;;;;;;;;4905413;29;20449;-67
2023/08/05 12:12:57;;;;;;;3.37;1.90;;;;;;;;;;4907334;29;20468;-67
2023/08/05 12:15:26;;;;;;;3.03;1.50;;;;;;;;;;4909731;29;20943;-68
2023/08/05 12:17:54;;;;;;;2.03;1.23;;;;;;;;;;4902304;29;20444;-68
2023/08/05 12:20:22;;;;;;;2.20;1.43;;;;;;;;;;4899728;29;20964;-67
2023/08/05 12:22:50;;;;;;;2.40;1.20;;;;;;;;;;4904100;29;20496;-68
2023/08/05 12:25:18;;;;;;;3.60;1.40;;;;;;;;;;4898010;29;20555;-68
2023/08/05 12:27:46;;;;;;;3.57;2.20;;;;;;;;;;4902039;29;20480;-68
2023/08/05 12:30:13;;;;;;;2.43;2.03;;;;;;;;;;4908300;29;20464;-67
2023/08/05 12:32:42;;;;;;;2.00;1.33;;;;;;;;;;4905519;29;20457;-68
2023/08/05 12:35:10;;;;;;;1.97;1.20;;;;;;;;;;4903466;29;20492;-67
2023/08/05 12:37:39;;;;;;;2.20;1.40;;;;;;;;;;4906898;29;20916;-68
2023/08/05 12:40:07;;;;;;;3.53;1.40;;;;;;;;;;4906142;29;20539;-68
2023/08/05 12:42:35;;;;;;;1.63;1.33;;;;;;;;;;4902276;29;20470;-67
2023/08/05 12:45:04;;;;;;;2.50;1.37;;;;;;;;;;4905340;29;20445;-67
2023/08/05 12:47:31;;;;;;;2.20;1.60;;;;;;;;;;4900576;29;20484;-67
2023/08/05 12:50:00;;;;;;;2.80;1.60;;;;;;;;;;4907396;29;20441;-68
2023/08/05 12:52:27;;;;;;;2.10;1.70;;;;;;;;;;4904455;29;20485;-67
2023/08/05 12:54:55;;;;;;;2.63;1.60;;;;;;;;;;4904689;29;20532;-67
2023/08/05 12:57:22;;;;;;;2.83;1.40;;;;;;;;;;4904653;29;20475;-68
2023/08/05 12:59:49;;;;;;;3.00;1.40;;;;;;;;;;4901667;29;20453;-67
2023/08/05 13:02:21;;;;;;;3.47;1.73;;;;;;;;;;4905024;29;21248;-68
2023/08/05 13:04:48;;;;;;;2.37;1.70;;;;;;;;;;4905413;29;20848;-67
2023/08/05 13:07:17;;;;;;;2.37;1.47;;;;;;;;;;4911721;29;20477;-67
2023/08/05 13:09:44;;;;;;;2.43;1.47;;;;;;;;;;4916997;29;20445;-68
2023/08/05 13:12:13;;;;;;;2.47;1.20;;;;;;;;;;4922049;29;20469;-68
2023/08/05 13:14:40;;;;;;;2.23;1.50;;;;;;;;;;4915766;29;20471;-68
2023/08/05 13:17:07;;;;;;;3.10;2.03;;;;;;;;;;4910958;29;20493;-67
2023/08/05 13:19:38;;;;;;;2.20;1.37;;;;;;;;;;4917982;29;21197;-67
2023/08/05 13:22:05;;;;;;;4.00;1.40;;;;;;;;;;4916545;29;20469;-68
2023/08/05 13:24:34;;;;;;;2.33;1.60;;;;;;;;;;4912419;29;20523;-68
2023/08/05 13:27:02;;;;;;;1.90;1.47;;;;;;;;;;4909910;29;20453;-68
2023/08/05 13:29:29;;;;;;;2.30;1.60;;;;;;;;;;4913457;29;20450;-68
2023/08/05 13:31:57;;;;;;;2.40;1.83;;;;;;;;;;4912054;29;20476;-68
2023/08/05 13:34:24;;;;;;;2.53;1.60;;;;;;;;;;4907913;29;21007;-67
2023/08/05 13:36:52;;;;;;;2.60;1.67;;;;;;;;;;4910229;29;20477;-67
2023/08/05 13:39:19;;;;;;;2.10;1.53;;;;;;;;;;4912946;29;20476;-68
2023/08/05 13:41:48;;;;;;;2.43;1.60;;;;;;;;;;4908870;29;20461;-68
2023/08/05 13:44:15;;;;;;;3.50;1.73;;;;;;;;;;4907468;29;20907;-69
2023/08/05 13:46:42;;;;;;;2.70;1.40;;;;;;;;;;4909620;29;20461;-68
2023/08/05 13:49:09;;;;;;;3.00;1.80;;;;;;;;;;4911791;29;20477;-69
2023/08/05 13:51:39;;;;;;;3.70;1.33;;;;;;;;;;4910395;29;20461;-69
2023/08/05 13:54:06;;;;;;;1.77;1.40;;;;;;;;;;4912973;29;20449;-69
2023/08/05 13:56:33;;;;;;;2.10;1.30;;;;;;;;;;4909487;29;20460;-68
2023/08/05 13:59:02;;;;;;;2.63;1.40;;;;;;;;;;4906977;29;20539;-69
2023/08/05 14:01:29;;;;;;;2.67;1.40;;;;;;;;;;4906444;29;21038;-67
2023/08/05 14:03:57;;;;;;;3.50;1.80;;;;;;;;;;4909184;29;20549;-67
2023/08/05 14:06:25;;;;;;;1.60;1.20;;;;;;;;;;4906403;29;20441;-67
2023/08/05 14:08:52;;;;;;;2.17;1.33;;;;;;;;;;4910185;29;21121;-67
2023/08/05 14:11:20;;;;;;;1.80;1.33;;;;;;;;;;4906582;29;20465;-67
2023/08/05 14:13:47;;;;;;;2.00;1.20;;;;;;;;;;4910547;29;20440;-67
2023/08/05 14:16:15;;;;;;;2.80;1.50;;;;;;;;;;4906995;29;20469;-67
2023/08/05 14:18:43;;;;;;;2.17;1.53;;;;;;;;;;4908437;29;20488;-67
2023/08/05 14:21:10;;;;;;;3.50;1.40;;;;;;;;;;4908314;29;20453;-67
2023/08/05 14:23:37;;;;;;;1.97;1.33;;;;;;;;;;4905474;29;20473;-66
2023/08/05 14:26:05;;;;;;;4.27;1.33;;;;;;;;;;4906251;29;20468;-67
2023/08/05 14:28:32;;;;;;;1.77;1.07;;;;;;;;;;4907865;29;20520;-67
2023/08/05 14:30:59;;;;;;;2.17;1.70;;;;;;;;;;4904420;29;20663;-68
2023/08/05 14:33:28;;;;;;;2.00;1.40;;;;;;;;;;4903062;29;20450;-67
2023/08/05 14:35:55;;;;;;;1.93;1.47;;;;;;;;;;4903884;29;20448;-67
2023/08/05 14:38:22;;;;;;;2.47;1.40;;;;;;;;;;4907193;29;20572;-67
2023/08/05 14:40:49;;;;;;;3.20;1.70;;;;;;;;;;4904133;29;20509;-68
2023/08/05 14:43:17;;;;;;;2.67;1.57;;;;;;;;;;4908041;29;20898;-67
2023/08/05 14:45:46;;;;;;;1.90;1.30;;;;;;;;;;4906642;29;20507;-67
2023/08/05 14:48:14;;;;;;;2.07;1.50;;;;;;;;;;4905187;29;20487;-68